Colorado AWOS List, Phone Numbers, Maps

USA |  
| Search AWOS

Rocky Mountain States: Montana | Wyoming | Colorado | New Mexico

Complete weather reports: Colorado

Legend: KFNL = METAR available Follow your local AWOS on AV Mobile = METAR available on AV Mobile
Station Colorado Location Frequency Phone
KAKOFAA ID AKO, ASOS, KAKO 242053Z AUTO 31007G14KT 10SM CLR 27/M06 A3011 RMK AO2 SLP148 T02721056 56014 Follow KAKO on AV Mobile COLORADO PLAINS REGIONAL 135.475 970-345-2320
KALSFAA ID ALS, ASOS, KALS 242052Z AUTO VRB04KT 10SM CLR 21/M06 A3035 Follow KALS on AV Mobile SAN LUIS VALLEY REGIONAL 135.175 719-589-5669
KASEFAA ID ASE, ASOS, KASE 242053Z 33010KT 10SM CLR 19/M04 A3035 Follow KASE on AV Mobile ASPEN-PITKIN COUNTY AIRPORT 120.400 970-925-9168
KBKFFAA ID BKF, KBKF 242058Z 15008KT 10SM FEW250 27/M08 A3016 Follow KBKF on AV Mobile Aurora, Buckley Air Force Base Airport
K7BMFAA ID 7BM, AWOS-3, K7BM 242054Z AUTO 26010G19KT 230V290 10SM CLR 18/M22 A3047 RMK AO2 Follow K7BM on AV Mobile Cottonwood Pass 132.050 303-512-4919
KBDUFAA ID BDU, AWOS-3, KBDU 242056Z AUTO 15010KT 10SM CLR 28/M03 A3011 RMK AO2 Follow KBDU on AV Mobile Boulder Municipal Airport 118.825 303-541-9540
KAEJFAA ID AEJ, AWOS-3, KAEJ 242055Z AUTO 25011KT 10SM CLR 23/M12 A3033 RMK AO2 T02261123 Follow KAEJ on AV Mobile Central Colorado Regional Airport 132.925 719-395-2599
KITRFAA ID ITR, ASOS, KITR 242053Z AUTO 28004KT 10SM CLR 29/M06 A3009 RMK AO2 SLP141 T02941061 56013 Follow KITR on AV Mobile Kit Carson County Airport 135.225 719-346-7036
K1V6FAA ID 1V6, AWOS-3, K1V6 242055Z AUTO 21004KT 10SM CLR 30/M07 A3015 RMK AO2 Follow K1V6 on AV Mobile CANON CITY 120.025
KAFFFAA ID AFF, KAFF 242058Z AUTO 15011G17KT 10SM CLR 25/M10 A3022 RMK AO2 SLP158 T02461101 57013 Follow KAFF on AV Mobile Air Force Academy
KCOSFAA ID COS, ASOS, KCOS 242054Z 18009KT 10SM FEW240 26/M09 A3021 Follow KCOS on AV Mobile COLORADO SPRINGS MUNI 125.000 719-637-9696
KFLYFAA ID FLY, AWOS-3PT, KFLY 242053Z AUTO 19009G14KT 10SM CLR 25/M08 A3027 RMK AO2 T02481083 Follow KFLY on AV Mobile Meadowlake Airport, Peyton, CO 118.450 719-683-5371
KCCUFAA ID CCU, AWOS-3, KCCU 242057Z AUTO 25008G20KT 10SM CLR 12/M13 A3062 RMK AO2 Follow KCCU on AV Mobile Copper Mountain, Red Cliff Pass 118.075 970-968-1715
KCEZFAA ID CEZ, ASOS, KCEZ 242053Z AUTO VRB03KT 10SM CLR 23/M01 A3030 RMK AO2 SLP214 T02331011 56019 Follow KCEZ on AV Mobile CORTEZ MONTEZUMA COUNTY AIRPORT 135.625 970-564-0193
KCAGFAA ID CAG, ASOS, KCAG 242053Z AUTO 23014G21KT 10SM CLR 23/M03 A3025 Follow KCAG on AV Mobile CRAIG MOFFAT AIRPORT 135.425 970-824-2373
KAJZFAA ID AJZ, AWOS-3, KAJZ 242055Z AUTO 00000KT 10SM CLR 25/M02 A3024 RMK AO2 T02531019 Follow KAJZ on AV Mobile Blake Field Airport 134.000 970-874-3251
KDNRICAO ID KDNR Denver / Stapleton International, Co.
KAPAFAA ID APA, ASOS, KAPA 242053Z 12009KT 10SM FEW150 26/M07 A3016 RMK AO2 SLP147 ACSL DSNT NW FU DSNT N T02561072 56018 Follow KAPA on AV Mobile DENVER CENTENNIAL AIRPORT 120.300 303-706-9098
KDENFAA ID DEN, ASOS, KDEN 242053Z 12009KT 10SM FU FEW140 FEW200 27/M07 A3014 Follow KDEN on AV Mobile DENVER INTERNATIONAL AIRPORT 125.600 303-342-0838
KFTGFAA ID FTG, AWOS-3, KFTG 242050Z 08008KT 50SM FEW180 28/M05 A3016 Follow KFTG on AV Mobile Front Range Airport 119.025 303-261-9104
KBJCFAA ID BJC, AWOS-3, KBJC 242053Z 14010KT 50SM FEW200 28/M05 A3015 Follow KBJC on AV Mobile Rocky Mountain Metro Airport 126.250 720-887-8067
K4V5ICAO ID K4V5 Durango Aviation Weather Reporting Station
KDROFAA ID DRO, ASOS, KDRO 242053Z AUTO 23009G16KT 10SM CLR 21/01 A3032 RMK AO2 SLP221 T02110006 56022 Follow KDRO on AV Mobile DURANGO-LA PLATA COUNTY AIRPORT 120.625 970-259-3579
KEGEFAA ID EGE, AWOS-3, KEGE 242050Z 25014G23KT 10SM SKC 22/M06 A3030 Follow KEGE on AV Mobile Eagle County Regional 135.575 970-524-7386
CO90FAA ID CO90, ASOS, K2V5 242120Z AUTO 31010KT 10SM CLR 31/M06 A3005 RMK AO2 T03141061 Follow  on AV Mobile USAF Academy Bullseye Aux Airstrip 118.325 719-683-3346
K0COFAA ID 0CO, AWOS-3, K0CO 242050Z AUTO 28019G23KT 10SM CLR 05/03 A3063 RMK AO2 Follow K0CO on AV Mobile EMPIRE 134.325
KEIKFAA ID EIK, AWOS-3, KEIK 242055Z AUTO 16014KT 10SM CLR 28/M07 A3011 RMK AO2 T02801073 Follow KEIK on AV Mobile Erie Municipal Airport 133.825 303-604-4339
KFCSFAA ID FCS, KFCS 242058Z AUTO 13009KT 10SM CLR 26/M08 A3018 RMK AO2 SLP176 T02581078 57014 Follow KFCS on AV Mobile Fort Carson
KFCLICAO ID KFCL Fort Collins Supplementary Aviation Weather Reporting Station
KFNLFAA ID FNL, AWOS-3, KFNL 242055Z AUTO 18010KT 10SM CLR 27/M01 A3011 RMK AO1 57020 Follow KFNL on AV Mobile Fort Collins/Loveland, Fort Collins-Loveland Municipal Airport 135.075 970-669-9187
KFMMFAA ID FMM, AWOS-3, KFMM 242055Z AUTO 26005KT 10SM CLR 28/M05 A3011 RMK AO2 T02811054 Follow KFMM on AV Mobile Fort Morgan Municipal Airport 132.950 970-867-4823
KGNBFAA ID GNB, AWOS-1 Granby-Grand County Airport 119.925 970-887-1803
KGJTFAA ID GJT, ASOS, KGJT 242053Z 31005KT 10SM CLR 23/01 A3023 Follow KGJT on AV Mobile GRAND JUNCTION WALKER FIELD 118.550 970-245-7881
KGXYFAA ID GXY, AWOS-3, KGXY 242055Z AUTO 00000KT 8SM CLR 27/M03 A3011 RMK AO1 57020 Follow KGXY on AV Mobile Greeley, Greeley-Weld County Airport 135.175 970-352-3511
K2V9ICAO ID K2V9 Gunnison Aviation Weather Reporting Station
KGUCFAA ID GUC, AWOS-3, KGUC 242055Z AUTO 00000KT 10SM CLR 18/M02 A3041 RMK AO1 57034 Follow KGUC on AV Mobile Gunnison, Gunnison-Crested Butte Regional Airport 135.075 970-641-3240
KHDNFAA ID HDN, AWOS-3, KHDN 242055Z AUTO 26014G20KT 10SM CLR 22/M04 A3026 RMK AO1 57027 Follow KHDN on AV Mobile Hayden, Yampa Valley Airport 119.275 970-276-3690
KHEQFAA ID HEQ, AWOS-3, KHEQ 242055Z AUTO 31006KT 10SM CLR 30/M02 A3005 RMK AO2 Follow KHEQ on AV Mobile Holyoke Airport 119.275 970-854-3679
K20VFAA ID 20V, AWOS-3, K20V 242055Z AUTO 23011G19KT 10SM CLR 21/M10 RMK AO2 Follow K20V on AV Mobile Kremmling, Mc Elroy Airfield 118.425 970-724-9659
KLHXFAA ID LHX, ASOS, KLHX 242053Z AUTO 21005KT 10SM CLR 30/M02 A3008 RMK AO2 SLP135 T03001022 56021 Follow KLHX on AV Mobile LA JUNTA MUNICIPAL AIRPORT 135.525 719-384-5961
KVTPFAA ID VTP, AWOS-3, KVTP 242047Z AUTO 20007KT 170V250 10SM CLR 17/M07 A3050 RMK AO2 Follow KVTP on AV Mobile La Veta Mountain, La Veta Pass 119.925 719-587-3120
KLAAFAA ID LAA, ASOS, KLAA 242053Z AUTO 00000KT 10SM CLR 30/00 A3005 RMK AO2 SLP139 T03000000 56021 Follow KLAA on AV Mobile LAMAR MUNICIPAL AIRPORT 135.625 719-336-3854
KLXVFAA ID LXV, ASOS, KLXV 242053Z AUTO 30010G18KT 10SM CLR 16/M11 A3046 Follow KLXV on AV Mobile LEADVILLE LAKE CO 118.375 719-486-2735
KLICFAA ID LIC, ASOS, KLIC 242055Z AUTO 10SM CLR 27/M07 A3016 RMK AO2 SLP158 T02671072 56013 Follow KLIC on AV Mobile LIMON MUNICIPAL AIRPORT 121.125 719-775-0515
KLMOFAA ID LMO, AWOS-3, KLMO 242053Z AUTO 16004KT 10SM CLR 29/M04 A3012 RMK AO2 T02851044 Follow KLMO on AV Mobile Vance Brand Airport 120.000 303-684-7545
KEEOFAA ID EEO, ASOS, KEEO 242053Z AUTO 24012G20KT 10SM CLR 23/M04 A3027 RMK AO2 SLP186 T02331039 56017 Follow KEEO on AV Mobile MEEKER AIRPORT 135.525 970-878-5036
KMYPFAA ID MYP, AWOS-3, KMYP 242056Z AUTO 27031G36KT 10SM CLR 08/M08 A3071 RMK AO2 Follow KMYP on AV Mobile Salida Mountain, Monarch Pass 124.175 719-539-4436
KMTJFAA ID MTJ, ASOS, KMTJ 242053Z AUTO 35006KT 10SM CLR 23/00 A3028 RMK AO2 SLP198 T02330000 56021 Follow KMTJ on AV Mobile MONTROSE REGIONAL AIRPORT 135.225 970-249-1534
KMNHFAA ID MNH, AWOS-3, KMNH 242052Z AUTO 18006KT 10SM CLR 23/M10 A3025 RMK AO2 Follow KMNH on AV Mobile Elbert Mountain, Monument Pass 134.375 303-648-3479
K3MWFAA ID 3MW, AWOS-3, K3MW 211630Z AUTO RMK AO2 TSNO PWINO Follow K3MW on AV Mobile Mount Werner 127.125 970-871-5640
KCRVICAO ID KCRV Nederland Mountain, Corona Pass
KAIBFAA ID AIB, AWOS-3, KAIB 242035Z AUTO 00000KT 10SM CLR 23/M01 A3033 RMK AO2 Follow KAIB on AV Mobile Hopkins Field Airport 132.525 970-864-2325
KPSOFAA ID PSO, AWOS-3, KPSO 242055Z AUTO 25003KT 10SM CLR 20/M04 A3038 RMK AO2 T02001041 Follow KPSO on AV Mobile Stevens Field Airport 127.175 970-731-0365
KPEFICAO ID KPEF Peterson Air Force Base
KPUXICAO ID KPUX Pueblo NEXRAD
KPUBFAA ID PUB, ASOS, KPUB 242053Z 10005KT 10SM CLR 29/M07 A3011 Follow KPUB on AV Mobile PUEBLO MEMORIAL AIRPORT 125.250 719-948-2803
K1V1ICAO ID K1V1 Rifle Aviation Weather Reporting Station
KRILFAA ID RIL, ASOS, KRIL 242053Z AUTO 32005KT 10SM CLR 21/01 A3025 RMK AO2 SLP207 T02110011 Follow KRIL on AV Mobile RIFLE GARFIELD COUNTY RGNL 135.275 970-625-2206
K04VFAA ID 04V, AWOS-3, K04V 242048Z AUTO 14006KT 10SM CLR 20/M01 A3037 RMK AO2 Follow K04V on AV Mobile Saguache, Saguache Municipal Airport 118.625 719-655-2229
KS29ICAO ID KS29 Salida
KANKFAA ID ANK, AWOS-3, KANK 242055Z AUTO 23013G22KT 10SM CLR 24/M11 A3038 RMK AO1 T02371112 Follow KANK on AV Mobile Harriet Alexander Field Airport 133.850 719-539-5268
KSPDICAO ID KSPD, KSPD 242056Z AUTO 18006KT 29/00 A3010 RMK AO1 SLP139 T02890000 56017 Follow KSPD on AV Mobile SPRINGFIELD COMANCHE NATL
KSBSFAA ID SBS, AWOS-3, KSBS 242055Z AUTO 00000KT 10SM CLR 20/M02 A3028 RMK AO1 T02011023 Follow KSBS on AV Mobile Steamboat Springs 118.325 970-879-7794
KSTKFAA ID STK, AWOS-3, KSTK 242055Z AUTO 33010KT 10SM CLR 31/M02 A3004 RMK AO2 Follow KSTK on AV Mobile Sterling Municipal Airport 118.525 970-526-3009
K5SMFAA ID 5SM, AWOS-3, K5SM 242058Z AUTO 24003KT 10SM CLR 14/M03 A3057 RMK AO2 Follow K5SM on AV Mobile Sunlight 126.075 970-384-3380
KTEXFAA ID TEX, AWOS-3, KTEX 242055Z AUTO 26008KT 10SM CLR 18/M07 A3048 RMK AO2 T01821068 Follow KTEX on AV Mobile Telluride, Telluride Regional Airport 118.325 970-728-1534
KTADFAA ID TAD, ASOS, KTAD 242054Z AUTO 11003KT 10SM CLR 26/M03 A3018 RMK AO2 SLP152 T02611028 56021 Follow KTAD on AV Mobile Trinidad, Perry Stokes Airport 119.025 719-845-1156
K33VFAA ID 33V, AWOS-3, K33V 242055Z AUTO 21013G20KT 10SM CLR 17/M07 A3034 RMK AO2 Follow K33V on AV Mobile WALDEN 118.625 970-723-4513
4V1FAA ID 4V1, AWOS-3, K2V5 242120Z AUTO 31010KT 10SM CLR 31/M06 A3005 RMK AO2 T03141061 Follow  on AV Mobile Spanish Peaks Airfield 123.600 719-738-1053
K4BMFAA ID 4BM, AWOS-3, K4BM 260156Z AUTO 20008KT 7SM RA SCT035 SCT055 BKN090 08/03 A3056 RMK AO2 Follow K4BM on AV Mobile Wilkerson Pass 132.3 303-512-4418
KC96ICAO ID KC96 Winter Park Resort
KCPWFAA ID CPW, AWOS-3, KCPW 242050Z AUTO 21009G18KT 10SM CLR 11/M06 RMK AO2 Follow KCPW on AV Mobile Pagosa Springs, Wolf Creek Pass 121.125 970-264-2180
K2V5FAA ID 2V5, AWOS-3, K2V5 242055Z AUTO 32008G15KT 10SM CLR 31/M06 A3005 RMK AO2 T03141062 Follow K2V5 on AV Mobile Wray Municipal Airport 118.250 970-332-5930

Click on the AV Mobile icon AV Mobile icon by any station to follow that AWOS feed on AirportView.net Mobile.

Legend: Commercial service airport with AWOS Commercial Airport AWOSNon-Commercial service airport with AWOS Non-Commercial Airport AWOS
Airport AWOS - Click symbol for weather report Fort Morgan Municipal Airport KFMM 242055Z AUTO 26005KT 10SM CLR 28/M05 A3011 RMK AO2 T02811054 Hopkins Field Airport KAIB 242035Z AUTO 00000KT 10SM CLR 23/M01 A3033 RMK AO2 Telluride, Telluride Regional Airport KTEX 242055Z AUTO 26008KT 10SM CLR 18/M07 A3048 RMK AO2 T01821068 Greeley, Greeley-Weld County Airport KGXY 242055Z AUTO 00000KT 8SM CLR 27/M03 A3011 RMK AO1 57020 Front Range Airport KFTG 242050Z 08008KT 50SM FEW180 28/M05 A3016 Rocky Mountain Metro Airport KBJC 242053Z 14010KT 50SM FEW200 28/M05 A3015 DENVER CENTENNIAL AIRPORT KAPA 242053Z 12009KT 10SM FEW150 26/M07 A3016 RMK AO2 SLP147 ACSL DSNT NW FU DSNT N T02561072 56018 DENVER INTERNATIONAL AIRPORT KDEN 242053Z 12009KT 10SM FU FEW140 FEW200 27/M07 A3014 Fort Collins/Loveland, Fort Collins-Loveland Municipal Airport KFNL 242055Z AUTO 18010KT 10SM CLR 27/M01 A3011 RMK AO1 57020 Boulder Municipal Airport KBDU 242056Z AUTO 15010KT 10SM CLR 28/M03 A3011 RMK AO2 Vance Brand Airport KLMO 242053Z AUTO 16004KT 10SM CLR 29/M04 A3012 RMK AO2 T02851044 Sterling Municipal Airport KSTK 242055Z AUTO 33010KT 10SM CLR 31/M02 A3004 RMK AO2 Holyoke Airport KHEQ 242055Z AUTO 31006KT 10SM CLR 30/M02 A3005 RMK AO2 COLORADO PLAINS REGIONAL KAKO 242053Z AUTO 31007G14KT 10SM CLR 27/M06 A3011 RMK AO2 SLP148 T02721056 56014 Kit Carson County Airport KITR 242053Z AUTO 28004KT 10SM CLR 29/M06 A3009 RMK AO2 SLP141 T02941061 56013 LIMON MUNICIPAL AIRPORT KLIC 242055Z AUTO 10SM CLR 27/M07 A3016 RMK AO2 SLP158 T02671072 56013 COLORADO SPRINGS MUNI KCOS 242054Z 18009KT 10SM FEW240 26/M09 A3021 LAMAR MUNICIPAL AIRPORT KLAA 242053Z AUTO 00000KT 10SM CLR 30/00 A3005 RMK AO2 SLP139 T03000000 56021 LA JUNTA MUNICIPAL AIRPORT KLHX 242053Z AUTO 21005KT 10SM CLR 30/M02 A3008 RMK AO2 SLP135 T03001022 56021 Trinidad, Perry Stokes Airport KTAD 242054Z AUTO 11003KT 10SM CLR 26/M03 A3018 RMK AO2 SLP152 T02611028 56021 PUEBLO MEMORIAL AIRPORT KPUB 242053Z 10005KT 10SM CLR 29/M07 A3011 CANON CITY 1V6 SAN LUIS VALLEY REGIONAL KALS 242052Z AUTO VRB04KT 10SM CLR 21/M06 A3035 Saguache, Saguache Municipal Airport K04V 242048Z AUTO 14006KT 10SM CLR 20/M01 A3037 RMK AO2 Granby-Grand County Airport KGNB WALDEN 33V Steamboat Springs KSBS 242055Z AUTO 00000KT 10SM CLR 20/M02 A3028 RMK AO1 T02011023 Hayden, Yampa Valley Airport KHDN 242055Z AUTO 26014G20KT 10SM CLR 22/M04 A3026 RMK AO1 57027 Kremmling, Mc Elroy Airfield K20V 242055Z AUTO 23011G19KT 10SM CLR 21/M10 RMK AO2 LEADVILLE LAKE CO KLXV 242053Z AUTO 30010G18KT 10SM CLR 16/M11 A3046 Eagle County Regional KEGE 242050Z 25014G23KT 10SM SKC 22/M06 A3030 CRAIG MOFFAT AIRPORT KCAG 242053Z AUTO 23014G21KT 10SM CLR 23/M03 A3025 MEEKER AIRPORT KEEO 242053Z AUTO 24012G20KT 10SM CLR 23/M04 A3027 RMK AO2 SLP186 T02331039 56017 ASPEN-PITKIN COUNTY AIRPORT KASE 242053Z 33010KT 10SM CLR 19/M04 A3035 Gunnison, Gunnison-Crested Butte Regional Airport KGUC 242055Z AUTO 00000KT 10SM CLR 18/M02 A3041 RMK AO1 57034 DURANGO-LA PLATA COUNTY AIRPORT  KDRO 242053Z AUTO 23009G16KT 10SM CLR 21/01 A3032 RMK AO2 SLP221 T02110006 56022 Stevens Field Airport KPSO 242055Z AUTO 25003KT 10SM CLR 20/M04 A3038 RMK AO2 T02001041 CORTEZ MONTEZUMA COUNTY AIRPORT  KCEZ 242053Z AUTO VRB03KT 10SM CLR 23/M01 A3030 RMK AO2 SLP214 T02331011 56019 MONTROSE REGIONAL AIRPORT KMTJ 242053Z AUTO 35006KT 10SM CLR 23/00 A3028 RMK AO2 SLP198 T02330000 56021 RIFLE GARFIELD COUNTY RGNL KRIL 242053Z AUTO 32005KT 10SM CLR 21/01 A3025 RMK AO2 SLP207 T02110011 GRAND JUNCTION WALKER FIELD KGJT 242053Z 31005KT 10SM CLR 23/01 A3023 Blake Field Airport KAJZ 242055Z AUTO 00000KT 10SM CLR 25/M02 A3024 RMK AO2 T02531019 Central Colorado Regional Airport KAEJ 242055Z AUTO 25011KT 10SM CLR 23/M12 A3033 RMK AO2 T02261123 Harriet Alexander Field Airport KANK 242055Z AUTO 23013G22KT 10SM CLR 24/M11 A3038 RMK AO1 T02371112 Erie Municipal Airport KEIK 242055Z AUTO 16014KT 10SM CLR 28/M07 A3011 RMK AO2 T02801073 Wray Municipal Airport K2V5 242055Z AUTO 32008G15KT 10SM CLR 31/M06 A3005 RMK AO2 T03141062
Legend: High Mountain AWOS Mountain Pass AWOS
Mountain Pass AWOS - Click symbol for weather report Pagosa Springs, Wolf Creek Pass KCPW 242050Z AUTO 21009G18KT 10SM CLR 11/M06 RMK AO2 Saguache, Saguache Municipal Airport K04V 242048Z AUTO 14006KT 10SM CLR 20/M01 A3037 RMK AO2 Kremmling, Mc Elroy Airfield K20V 242055Z AUTO 23011G19KT 10SM CLR 21/M10 RMK AO2 La Veta Mountain, La Veta Pass KVTP 242047Z AUTO 20007KT 170V250 10SM CLR 17/M07 A3050 RMK AO2 Salida Mountain, Monarch Pass KMYP 242056Z AUTO 27031G36KT 10SM CLR 08/M08 A3071 RMK AO2 Cottonwood Pass K7BM 242054Z AUTO 26010G19KT 230V290 10SM CLR 18/M22 A3047 RMK AO2 Elbert Mountain, Monument Pass KMNH 242052Z AUTO 18006KT 10SM CLR 23/M10 A3025 RMK AO2 Wilkerson Pass K4BM 260156Z AUTO 20008KT 7SM RA SCT035 SCT055 BKN090 08/03 A3056 RMK AO2 Copper Mountain, Red Cliff Pass KCCU 242057Z AUTO 25008G20KT 10SM CLR 12/M13 A3062 RMK AO2 EMPIRE 0CO Sunlight K5SM 242058Z AUTO 24003KT 10SM CLR 14/M03 A3057 RMK AO2 Mount Werner K3MW 211630Z AUTO RMK AO2 TSNO PWINO
Garmin aera 796 $1999 at Avionics Specialists LLC
Bose A20 Aviation Headsets $995 at Avionics Specialists LLC